This is the latest recevied weather packets stored in our database for station/object GW1495. If no packets are shown the sender has not sent any weather packets the latest 10 day(s).
| Time | Temp. | Humidity | Pressure | Rain* | Wind** | Luminosity | Snow |
|---|---|---|---|---|---|---|---|
| 1777945158 | 13.33° C | 83% | 1004.4 hPa | 0.25 mm | - | - | - |
| 1777943736 | 13.89° C | 82% | 1004.7 hPa | 0.25 mm | - | - | - |
| 1777943011 | 13.89° C | 82% | 1004.4 hPa | 0.25 mm | - | - | - |
| 1777940113 | 15.56° C | 77% | 1003.7 hPa | 0.25 mm | - | - | - |
| 1777939035 | 16.67° C | 75% | 1004 hPa | 0.25 mm | - | - | - |
| 1777937621 | 17.78° C | 71% | 1003.7 hPa | 0.25 mm | - | - | - |
| 1777935107 | 21.67° C | 50% | 1003.7 hPa | 0.25 mm | - | - | - |
| 1777934376 | 21.67° C | 53% | 1004 hPa | 0.25 mm | - | - | - |
| 1777933996 | 21.67° C | 60% | 1004 hPa | 0.25 mm | - | - | - |
| 1777932196 | 23.33° C | 45% | 1004 hPa | 0.25 mm | - | - | - |
| 1777929328 | 25° C | 41% | 1004 hPa | 0.25 mm | - | - | - |
| 1777928990 | 24.44° C | 42% | 1004 hPa | 0.25 mm | - | - | - |
| 1777927172 | 24.44° C | 41% | 1004.7 hPa | 0.25 mm | - | - | - |
| 1777925741 | 25.56° C | 40% | 1004.7 hPa | 0.25 mm | - | - | - |
| 1777923576 | 23.89° C | 43% | 1005 hPa | 0.25 mm | - | - | - |
| 1777922842 | 23.33° C | 46% | 1005.4 hPa | 0.25 mm | - | - | - |
| 1777921789 | 22.78° C | 49% | 1005.7 hPa | 0.25 mm | - | - | - |
| 1777921053 | 22.78° C | 51% | 1005.7 hPa | 0.25 mm | - | - | - |
| 1777920335 | 22.78° C | 50% | 1006 hPa | 0.25 mm | - | - | - |
| 1777917800 | 21.11° C | 53% | 1006 hPa | 0.25 mm | - | - | - |
| 1777917468 | 21.11° C | 53% | 1006 hPa | 0.25 mm | - | - | - |
| 1777915633 | 20° C | 59% | 1007.1 hPa | 0.25 mm | - | - | - |
| 1777913498 | 18.89° C | 61% | 1007.7 hPa | 0.25 mm | - | - | - |
| 1777911690 | 17.22° C | 69% | 1008.1 hPa | 0.25 mm | - | - | - |
| 1777911312 | 16.67° C | 67% | 1008.1 hPa | 0.25 mm | - | - | - |
* Rain since midnight (hover to see other rain measurements)
** Current wind speed in m/s (hover to see current wind gust speed)